Time;durP1;ratioP1;P1;durP2;ratioP2;P2;SDS_P1;SDS_P2;PMS_P1;PMS_P2;Temp;Humidity;BMP_temperature;BMP_pressure;BME280_temperature;BME280_humidity;BME280_pressure;Samples;Min_cycle;Max_cycle;Signal;HPM_P1;HPM_P2
2022/05/04 00:00:22;;;;;;;10.67;8.00;;;15.60;44.20;;;;;;4956001;29;20435;-74
2022/05/04 00:02:48;;;;;;;11.87;7.60;;;15.60;44.30;;;;;;4956481;28;20177;-74
2022/05/04 00:05:14;;;;;;;13.60;7.60;;;15.60;44.30;;;;;;4955272;28;20515;-74
2022/05/04 00:07:40;;;;;;;10.83;7.43;;;15.60;44.10;;;;;;4956658;29;20204;-74
2022/05/04 00:10:06;;;;;;;14.87;9.03;;;15.40;45.40;;;;;;4956639;29;20252;-74
2022/05/04 00:12:33;;;;;;;20.73;9.80;;;15.30;45.30;;;;;;4956570;28;20185;-74
2022/05/04 00:14:59;;;;;;;22.03;11.73;;;15.30;45.50;;;;;;4956353;28;21016;-75
2022/05/04 00:17:25;;;;;;;22.80;13.63;;;15.20;46.40;;;;;;4955644;29;20450;-74
2022/05/04 00:19:50;;;;;;;22.83;13.97;;;15.20;47.70;;;;;;4955067;28;20194;-74
2022/05/04 00:22:20;;;;;;;20.90;14.20;;;15.20;47.80;;;;;;4955910;28;20188;-74
2022/05/04 00:24:46;;;;;;;21.77;14.70;;;15.10;48.20;;;;;;4955579;28;20563;-73
2022/05/04 00:27:15;;;;;;;19.90;13.87;;;15.20;47.80;;;;;;4955548;28;20444;-74
2022/05/04 00:29:44;;;;;;;22.30;14.17;;;15.40;47.10;;;;;;4955575;28;20185;-75
2022/05/04 00:32:13;;;;;;;21.23;14.40;;;15.30;46.10;;;;;;4955999;29;20425;-75
2022/05/04 00:34:39;;;;;;;24.37;14.53;;;15.30;46.60;;;;;;4955500;28;20802;-75
2022/05/04 00:37:06;;;;;;;31.30;14.30;;;15.30;47.50;;;;;;4954916;29;20520;-75
2022/05/04 00:39:32;;;;;;;21.20;15.40;;;15.40;46.60;;;;;;4955857;29;20471;-73
2022/05/04 00:42:08;;;;;;;23.30;14.57;;;15.40;46.50;;;;;;4954533;29;20418;-74
2022/05/04 00:44:34;;;;;;;21.00;14.67;;;15.30;48.30;;;;;;4955926;28;20441;-73
2022/05/04 00:47:00;;;;;;;22.17;14.03;;;15.30;47.20;;;;;;4954969;29;20587;-74
2022/05/04 00:49:26;;;;;;;18.33;12.30;;;15.30;47.20;;;;;;4955283;28;20781;-74
2022/05/04 00:51:51;;;;;;;17.03;11.93;;;15.50;45.70;;;;;;4955262;28;20435;-74
2022/05/04 00:54:17;;;;;;;19.53;13.23;;;15.70;45.00;;;;;;4955493;28;20459;-74
2022/05/04 00:56:44;;;;;;;14.80;11.33;;;15.80;46.70;;;;;;4953985;29;20190;-75
2022/05/04 00:59:09;;;;;;;15.73;11.80;;;15.40;45.30;;;;;;4955448;28;20441;-75
2022/05/04 01:01:35;;;;;;;17.60;11.90;;;15.60;46.50;;;;;;4955751;29;20451;-74
2022/05/04 01:04:01;;;;;;;14.30;11.17;;;15.40;45.60;;;;;;4954266;28;20572;-73
2022/05/04 01:06:27;;;;;;;16.90;11.07;;;15.30;46.40;;;;;;4953544;29;20565;-74
2022/05/04 01:08:54;;;;;;;14.90;10.17;;;15.40;45.20;;;;;;4953650;29;20202;-73
2022/05/04 01:11:21;;;;;;;13.37;9.73;;;15.50;45.10;;;;;;4953298;28;20449;-74
2022/05/04 01:14:00;;;;;;;14.07;10.30;;;15.50;44.80;;;;;;4953421;28;20471;-74
2022/05/04 01:16:27;;;;;;;17.20;10.27;;;15.30;46.20;;;;;;4948250;29;21034;-74
2022/05/04 01:18:53;;;;;;;14.57;9.83;;;15.30;46.00;;;;;;4949930;29;20447;-74
2022/05/04 01:21:18;;;;;;;14.07;10.17;;;15.30;45.90;;;;;;4954498;29;21005;-74
2022/05/04 01:23:46;;;;;;;14.80;9.77;;;15.20;46.20;;;;;;4953964;28;20218;-74
2022/05/04 01:26:16;;;;;;;15.73;9.93;;;15.00;47.60;;;;;;4955359;28;20217;-74
2022/05/04 01:28:43;;;;;;;14.40;9.90;;;15.00;47.70;;;;;;4954345;28;20445;-74
2022/05/04 01:31:09;;;;;;;12.77;9.63;;;15.00;48.80;;;;;;4952534;29;20496;-74
2022/05/04 01:33:35;;;;;;;15.17;10.43;;;15.10;48.60;;;;;;4953873;28;20489;-74
2022/05/04 01:36:01;;;;;;;13.07;9.90;;;15.20;48.00;;;;;;4954140;29;21073;-73
2022/05/04 01:38:27;;;;;;;11.80;8.60;;;15.20;47.20;;;;;;4953916;28;20520;-74
2022/05/04 01:40:52;;;;;;;16.47;9.70;;;15.30;46.30;;;;;;4952413;28;20490;-74
2022/05/04 01:43:18;;;;;;;15.23;9.10;;;15.40;45.60;;;;;;4953726;28;20209;-74
2022/05/04 01:45:44;;;;;;;15.60;9.10;;;15.40;45.50;;;;;;4953634;28;20181;-74
2022/05/04 01:48:10;;;;;;;15.33;10.23;;;15.30;46.40;;;;;;4953871;28;20446;-74
2022/05/04 01:50:35;;;;;;;12.80;10.17;;;15.30;47.30;;;;;;4953589;29;20426;-73
2022/05/04 01:53:01;;;;;;;14.70;10.27;;;15.30;46.00;;;;;;4954444;28;20701;-74
2022/05/04 01:55:28;;;;;;;19.80;11.50;;;15.40;45.40;;;;;;4954350;28;20202;-74
2022/05/04 01:57:54;;;;;;;19.23;10.87;;;15.30;46.40;;;;;;4954095;28;20449;-74
2022/05/04 02:00:20;;;;;;;27.57;11.63;;;15.40;46.00;;;;;;4953549;29;20928;-72
2022/05/04 02:02:45;;;;;;;18.90;11.07;;;15.30;46.70;;;;;;4954307;28;20225;-74
2022/05/04 02:05:12;;;;;;;18.60;11.40;;;15.10;46.70;;;;;;4953694;28;20271;-75
2022/05/04 02:07:38;;;;;;;18.97;11.50;;;15.20;47.20;;;;;;4952951;28;20216;-74
2022/05/04 02:10:05;;;;;;;15.27;11.27;;;15.20;47.00;;;;;;4953651;29;20510;-74
2022/05/04 02:12:31;;;;;;;16.47;12.20;;;15.10;48.40;;;;;;4951672;29;20460;-75
2022/05/04 02:14:56;;;;;;;16.80;12.30;;;15.10;47.10;;;;;;4953108;28;20460;-74
2022/05/04 02:17:22;;;;;;;18.13;12.30;;;15.30;45.90;;;;;;4953436;28;20437;-74
2022/05/04 02:19:48;;;;;;;22.70;12.60;;;15.30;47.30;;;;;;4952864;29;20194;-75
2022/05/04 02:22:13;;;;;;;21.70;11.50;;;15.30;48.00;;;;;;4953730;29;20177;-75
2022/05/04 02:24:39;;;;;;;19.37;13.00;;;15.30;47.30;;;;;;4953119;28;20811;-75
2022/05/04 02:27:05;;;;;;;19.10;12.70;;;15.30;46.30;;;;;;4951981;29;20241;-74
2022/05/04 02:29:31;;;;;;;22.00;13.60;;;15.40;47.00;;;;;;4953509;29;20273;-74
2022/05/04 02:31:58;;;;;;;18.33;12.80;;;15.50;45.70;;;;;;4952141;28;20444;-74
2022/05/04 02:34:25;;;;;;;21.03;12.50;;;15.40;47.00;;;;;;4952203;28;20549;-75
2022/05/04 02:39:35;;;;;;;14.80;11.30;;;15.50;45.70;;;;;;4954170;29;20422;-73
2022/05/04 02:42:00;;;;;;;19.10;12.10;;;15.30;45.00;;;;;;4954664;29;20426;-75
2022/05/04 02:44:26;;;;;;;14.50;11.80;;;15.20;45.90;;;;;;4955661;28;20815;-76
2022/05/04 02:46:52;;;;;;;17.60;11.10;;;15.10;46.10;;;;;;4955782;28;20614;-76
2022/05/04 02:49:18;;;;;;;16.00;11.70;;;14.60;47.10;;;;;;4952495;29;20190;-75
2022/05/04 02:51:44;;;;;;;23.00;11.90;;;14.60;48.40;;;;;;4952451;29;20233;-73
2022/05/04 02:54:10;;;;;;;16.47;11.97;;;14.80;47.70;;;;;;4950837;28;20481;-74
2022/05/04 02:56:36;;;;;;;19.67;12.47;;;14.80;47.50;;;;;;4953134;28;20506;-75
2022/05/04 02:59:02;;;;;;;20.77;12.90;;;14.90;47.80;;;;;;4952680;29;20469;-74
2022/05/04 03:04:13;;;;;;;17.90;12.80;;;15.10;47.30;;;;;;4953306;28;20467;-74
2022/05/04 03:06:40;;;;;;;19.43;12.63;;;15.20;48.10;;;;;;4952577;29;20462;-74
2022/05/04 03:09:07;;;;;;;17.67;12.97;;;15.20;46.00;;;;;;4952681;28;20422;-73
2022/05/04 03:14:19;;;;;;;21.67;14.10;;;15.30;47.00;;;;;;4953245;28;20456;-75
2022/05/04 03:16:44;;;;;;;21.07;13.50;;;15.40;47.10;;;;;;4952174;29;20432;-74
2022/05/04 03:19:10;;;;;;;25.13;13.27;;;15.40;45.60;;;;;;4953459;29;20417;-74
2022/05/04 03:21:36;;;;;;;18.70;12.33;;;15.60;43.70;;;;;;4951215;29;20652;-73
2022/05/04 03:24:02;;;;;;;23.40;12.30;;;15.70;43.10;;;;;;4952967;28;20210;-74
2022/05/04 03:26:27;;;;;;;20.53;13.67;;;15.70;43.30;;;;;;4952890;29;20555;-74
2022/05/04 03:28:53;;;;;;;21.33;13.50;;;15.40;45.60;;;;;;4953246;28;20499;-74
2022/05/04 03:31:19;;;;;;;22.63;12.97;;;15.30;47.30;;;;;;4951803;28;20186;-74
2022/05/04 03:33:45;;;;;;;18.60;12.70;;;15.30;46.70;;;;;;4951988;28;20217;-74
2022/05/04 03:36:11;;;;;;;17.10;12.20;;;15.30;46.40;;;;;;4953053;29;20467;-75
2022/05/04 03:38:37;;;;;;;19.73;12.90;;;15.10;47.50;;;;;;4952692;29;20214;-74
2022/05/04 03:41:03;;;;;;;21.93;11.73;;;15.20;46.30;;;;;;4951484;28;20466;-75
2022/05/04 03:43:28;;;;;;;15.80;11.90;;;15.30;46.40;;;;;;4951904;28;20671;-75
2022/05/04 03:45:54;;;;;;;16.13;11.60;;;15.30;46.50;;;;;;4951987;29;20471;-74
2022/05/04 03:48:21;;;;;;;20.83;11.80;;;15.30;47.10;;;;;;4952582;29;20186;-74
2022/05/04 03:50:47;;;;;;;16.53;11.63;;;15.30;47.10;;;;;;4951760;28;20183;-72
2022/05/04 03:53:13;;;;;;;18.50;12.00;;;15.10;47.30;;;;;;4949953;28;20498;-75
2022/05/04 03:55:39;;;;;;;19.23;11.47;;;15.20;48.10;;;;;;4952891;29;20446;-74
2022/05/04 03:58:05;;;;;;;17.83;11.60;;;15.20;48.30;;;;;;4951998;29;20436;-73
2022/05/04 04:00:30;;;;;;;14.43;10.53;;;15.20;47.00;;;;;;4949008;29;20180;-74
2022/05/04 04:02:56;;;;;;;12.50;9.70;;;15.10;47.90;;;;;;4951785;28;21051;-74
2022/05/04 04:05:23;;;;;;;14.10;9.83;;;15.30;46.90;;;;;;4944851;29;20538;-74
2022/05/04 04:07:49;;;;;;;14.97;9.87;;;15.20;47.20;;;;;;4953023;28;20203;-74
2022/05/04 04:10:15;;;;;;;13.47;10.10;;;15.20;46.40;;;;;;4951595;28;20856;-74
2022/05/04 04:12:40;;;;;;;15.83;10.23;;;15.20;48.30;;;;;;4952023;28;20520;-74
2022/05/04 04:15:06;;;;;;;14.00;9.90;;;15.30;48.40;;;;;;4951446;28;20472;-74
2022/05/04 04:17:32;;;;;;;17.53;10.00;;;15.30;46.80;;;;;;4951958;29;20564;-74
2022/05/04 04:22:42;;;;;;;14.50;10.30;;;15.20;47.70;;;;;;4952834;29;20259;-74
2022/05/04 04:25:08;;;;;;;15.10;10.33;;;15.30;48.00;;;;;;4951093;28;20929;-74
2022/05/04 04:27:35;;;;;;;17.07;9.97;;;15.50;46.70;;;;;;4953544;28;20203;-74
2022/05/04 04:30:01;;;;;;;14.53;10.30;;;15.40;47.40;;;;;;4956412;29;20425;-75
2022/05/04 04:32:27;;;;;;;14.90;9.63;;;15.40;45.70;;;;;;4956137;29;20923;-74
2022/05/04 04:34:52;;;;;;;14.13;9.83;;;15.50;45.50;;;;;;4954154;28;20200;-74
2022/05/04 04:37:18;;;;;;;19.07;10.50;;;15.60;45.90;;;;;;4956109;28;20926;-74
2022/05/04 04:39:44;;;;;;;15.50;10.30;;;15.50;47.20;;;;;;4955651;29;20181;-74
2022/05/04 04:42:12;;;;;;;13.50;9.93;;;15.30;46.60;;;;;;4954604;28;20202;-74
2022/05/04 04:44:38;;;;;;;15.20;10.73;;;15.40;46.50;;;;;;4955842;28;20438;-74
2022/05/04 04:47:04;;;;;;;16.83;10.30;;;15.50;48.10;;;;;;4954806;29;20436;-74
2022/05/04 04:49:30;;;;;;;13.60;9.80;;;15.60;47.60;;;;;;4955699;29;20213;-74
2022/05/04 04:51:55;;;;;;;15.53;10.20;;;15.50;47.60;;;;;;4954409;29;20508;-75
2022/05/04 04:54:21;;;;;;;14.03;10.47;;;15.10;47.80;;;;;;4955488;28;20222;-75
2022/05/04 04:56:47;;;;;;;16.63;10.10;;;14.80;47.50;;;;;;4954786;29;20280;-74
2022/05/04 04:59:13;;;;;;;14.97;9.93;;;14.20;50.00;;;;;;4955839;28;20237;-74
2022/05/04 05:01:38;;;;;;;19.90;9.70;;;14.30;52.60;;;;;;4955261;29;20410;-74
2022/05/04 05:04:04;;;;;;;18.93;9.43;;;14.50;50.60;;;;;;4955202;28;20207;-74
2022/05/04 05:06:30;;;;;;;18.93;13.00;;;14.50;50.10;;;;;;4954742;28;20183;-74
2022/05/04 05:08:56;;;;;;;17.83;13.23;;;14.40;51.80;;;;;;4954016;28;20641;-74
2022/05/04 05:11:22;;;;;;;22.63;14.20;;;14.50;49.60;;;;;;4947270;29;20423;-75
2022/05/04 05:16:32;;;;;;;15.40;9.43;;;14.50;50.20;;;;;;4955076;29;20460;-75
2022/05/04 05:18:57;;;;;;;14.80;9.47;;;14.80;50.20;;;;;;4954338;29;20850;-75
2022/05/04 05:21:23;;;;;;;12.87;9.00;;;14.90;49.10;;;;;;4955267;29;20174;-74
2022/05/04 05:23:48;;;;;;;13.43;9.40;;;15.00;47.70;;;;;;4953648;28;20608;-73
2022/05/04 05:26:14;;;;;;;13.73;8.40;;;15.00;48.80;;;;;;4955183;28;20191;-75
2022/05/04 05:28:40;;;;;;;11.03;8.57;;;15.10;48.10;;;;;;4954590;29;20294;-74
2022/05/04 05:31:05;;;;;;;11.33;8.23;;;15.20;47.70;;;;;;4954050;28;20627;-74
2022/05/04 05:33:31;;;;;;;13.00;9.83;;;15.20;46.70;;;;;;4955165;28;20207;-73
2022/05/04 05:35:56;;;;;;;14.80;10.20;;;15.20;47.00;;;;;;4954555;28;20227;-75
2022/05/04 05:38:25;;;;;;;15.20;9.57;;;15.40;44.90;;;;;;4954298;28;20180;-75
2022/05/04 05:40:51;;;;;;;15.97;10.00;;;15.40;45.90;;;;;;4953922;28;20190;-75
2022/05/04 05:43:16;;;;;;;15.80;10.00;;;15.40;44.00;;;;;;4954401;28;20447;-75
2022/05/04 05:45:42;;;;;;;14.23;10.47;;;15.20;46.30;;;;;;4954993;29;20194;-75
2022/05/04 05:48:08;;;;;;;32.57;10.50;;;15.10;48.10;;;;;;4953963;28;20294;-76
2022/05/04 05:50:34;;;;;;;18.13;10.60;;;15.50;44.30;;;;;;4954649;29;20238;-76
2022/05/04 05:53:01;;;;;;;13.80;10.40;;;15.40;43.80;;;;;;4953254;28;20242;-74
2022/05/04 05:55:26;;;;;;;16.37;11.00;;;15.10;47.00;;;;;;4954147;29;20494;-75
2022/05/04 05:57:52;;;;;;;17.43;10.40;;;15.60;44.90;;;;;;4954724;28;20454;-75
2022/05/04 06:00:18;;;;;;;17.13;9.50;;;15.80;45.10;;;;;;4954880;28;20186;-74
2022/05/04 06:02:45;;;;;;;15.60;9.90;;;15.80;42.70;;;;;;4953539;28;20714;-75
2022/05/04 06:05:10;;;;;;;14.93;9.20;;;15.00;46.40;;;;;;4954410;28;21019;-74
2022/05/04 06:07:37;;;;;;;17.20;9.70;;;15.00;45.10;;;;;;4954198;28;20452;-75
2022/05/04 06:10:03;;;;;;;14.37;8.37;;;14.70;46.60;;;;;;4954366;28;20202;-74
2022/05/04 06:12:29;;;;;;;14.97;10.10;;;14.20;49.70;;;;;;4953116;28;20760;-74
2022/05/04 06:14:55;;;;;;;12.57;9.53;;;14.60;48.00;;;;;;4953533;28;20529;-74
2022/05/04 06:17:21;;;;;;;24.83;10.17;;;15.10;47.30;;;;;;4953376;29;20423;-75
2022/05/04 06:19:47;;;;;;;21.17;10.83;;;15.30;46.80;;;;;;4954306;28;20183;-74
2022/05/04 06:22:13;;;;;;;16.70;10.23;;;15.40;48.10;;;;;;4954055;28;20254;-73
2022/05/04 06:24:39;;;;;;;27.40;10.23;;;14.80;48.00;;;;;;4953184;28;20930;-72
2022/05/04 06:27:04;;;;;;;27.93;11.13;;;14.60;50.30;;;;;;4952571;29;20480;-72
2022/05/04 06:35:03;;;;;;;23.30;11.03;;;14.60;52.50;;;;;;4953075;28;20829;-73
2022/05/04 06:37:29;;;;;;;22.40;11.20;;;14.40;54.40;;;;;;4953025;29;20435;-72
2022/05/04 06:39:55;;;;;;;17.13;12.20;;;14.50;52.80;;;;;;4953504;29;20440;-72
2022/05/04 06:42:20;;;;;;;21.50;14.17;;;14.60;54.00;;;;;;4953777;29;20190;-73
2022/05/04 06:44:46;;;;;;;26.70;14.47;;;14.80;54.30;;;;;;4952423;28;20207;-72
2022/05/04 06:47:12;;;;;;;27.10;13.27;;;15.10;52.10;;;;;;4953572;28;20268;-73
2022/05/04 06:49:38;;;;;;;17.07;12.33;;;15.20;49.70;;;;;;4953409;28;20222;-73
2022/05/04 06:52:04;;;;;;;14.73;10.33;;;15.10;50.80;;;;;;4952909;28;20556;-73
2022/05/04 06:54:29;;;;;;;15.77;10.60;;;15.00;49.50;;;;;;4953288;28;20458;-73
2022/05/04 06:56:55;;;;;;;17.30;11.10;;;14.60;51.20;;;;;;4952792;29;20192;-75
2022/05/04 06:59:21;;;;;;;16.57;10.47;;;14.90;51.40;;;;;;4953334;29;20207;-75
2022/05/04 07:01:47;;;;;;;15.77;10.70;;;15.30;49.30;;;;;;4952377;28;20565;-74
2022/05/04 07:04:13;;;;;;;16.00;11.00;;;15.30;49.70;;;;;;4953457;28;20444;-75
2022/05/04 07:06:38;;;;;;;13.93;10.57;;;15.20;47.10;;;;;;4952579;29;20204;-75
2022/05/04 07:09:04;;;;;;;21.10;11.77;;;15.70;48.20;;;;;;4953952;29;20184;-77
2022/05/04 07:11:30;;;;;;;13.97;11.10;;;16.60;45.30;;;;;;4953950;29;20184;-75
2022/05/04 07:13:55;;;;;;;16.07;10.40;;;16.90;44.00;;;;;;4951253;28;20211;-74
2022/05/04 07:16:21;;;;;;;13.20;10.23;;;17.30;42.20;;;;;;4952161;28;20222;-75
2022/05/04 07:18:47;;;;;;;18.87;11.20;;;17.60;41.30;;;;;;4956595;28;20188;-74
2022/05/04 07:21:12;;;;;;;15.37;10.47;;;18.00;41.10;;;;;;4953080;28;20189;-75
2022/05/04 07:23:38;;;;;;;20.93;10.57;;;18.10;37.80;;;;;;4952892;28;20914;-75
2022/05/04 07:26:03;;;;;;;13.97;9.60;;;18.20;38.30;;;;;;4951876;28;20194;-75
2022/05/04 07:28:30;;;;;;;13.77;9.90;;;18.40;37.50;;;;;;4952581;29;20595;-75
2022/05/04 07:30:56;;;;;;;16.87;10.80;;;18.40;39.40;;;;;;4950706;28;20178;-75
2022/05/04 07:33:22;;;;;;;15.43;9.50;;;18.50;37.60;;;;;;4952788;28;20964;-75
2022/05/04 07:35:47;;;;;;;12.60;10.00;;;19.00;37.10;;;;;;4951790;28;20707;-75
2022/05/04 07:38:13;;;;;;;14.93;9.13;;;18.80;36.50;;;;;;4951460;28;20574;-75
2022/05/04 07:43:23;;;;;;;21.20;9.90;;;17.00;39.20;;;;;;4953419;28;20227;-74
2022/05/04 07:45:49;;;;;;;12.77;9.40;;;16.40;42.50;;;;;;4949955;29;20527;-74
2022/05/04 07:48:14;;;;;;;12.60;9.03;;;16.60;41.70;;;;;;4952636;28;20652;-73
2022/05/04 07:50:40;;;;;;;11.43;8.63;;;16.90;40.70;;;;;;4952257;29;20268;-74
2022/05/04 07:53:06;;;;;;;15.20;9.10;;;17.00;41.60;;;;;;4950748;28;20316;-73
2022/05/04 07:55:32;;;;;;;16.73;8.50;;;17.60;39.20;;;;;;4949045;28;20676;-74
2022/05/04 07:57:58;;;;;;;16.67;9.40;;;18.10;36.40;;;;;;4947232;29;20185;-75
2022/05/04 08:05:53;;;;;;;11.60;8.00;;;17.90;37.20;;;;;;4948830;29;20442;-74
2022/05/04 08:08:18;;;;;;;12.37;8.50;;;18.30;35.40;;;;;;4953404;28;20442;-72
2022/05/04 08:10:44;;;;;;;14.47;9.00;;;18.10;35.20;;;;;;4952647;28;20189;-73
2022/05/04 08:13:10;;;;;;;13.43;8.40;;;18.20;37.20;;;;;;4953674;28;20241;-74
2022/05/04 08:15:36;;;;;;;11.83;9.43;;;19.30;33.70;;;;;;4951505;29;21622;-73
2022/05/04 08:18:03;;;;;;;17.33;10.17;;;19.60;32.40;;;;;;4953315;29;20271;-74
2022/05/04 08:20:29;;;;;;;14.90;9.97;;;19.70;33.00;;;;;;4954452;29;20424;-73
2022/05/04 08:22:55;;;;;;;17.30;10.67;;;19.20;32.30;;;;;;4950869;28;20848;-73
2022/05/04 08:25:21;;;;;;;12.77;10.20;;;19.00;33.50;;;;;;4954083;29;21308;-73
2022/05/04 08:27:47;;;;;;;15.63;11.07;;;19.30;32.60;;;;;;4955143;28;20443;-74
2022/05/04 08:30:12;;;;;;;16.90;10.40;;;20.00;30.90;;;;;;4953858;29;20190;-73
2022/05/04 08:32:38;;;;;;;14.20;8.97;;;19.50;31.80;;;;;;4953268;28;20246;-73
2022/05/04 08:35:04;;;;;;;12.00;9.57;;;19.20;33.70;;;;;;4954254;28;20216;-73
2022/05/04 08:37:30;;;;;;;18.23;9.73;;;19.30;34.20;;;;;;4952365;28;20193;-72
2022/05/04 08:39:56;;;;;;;17.60;9.10;;;18.90;35.00;;;;;;4952027;28;20439;-73
2022/05/04 08:42:22;;;;;;;11.67;8.90;;;18.50;36.60;;;;;;4951457;29;20189;-73
2022/05/04 08:44:56;;;;;;;15.70;9.37;;;18.80;36.30;;;;;;4951662;28;20830;-73
2022/05/04 08:47:25;;;;;;;12.97;9.60;;;18.60;36.00;;;;;;4951316;28;20238;-73
2022/05/04 08:49:51;;;;;;;14.70;8.53;;;18.40;36.70;;;;;;4949342;28;20447;-75
2022/05/04 08:52:17;;;;;;;13.67;8.50;;;17.90;38.00;;;;;;4951132;28;20823;-75
2022/05/04 08:54:45;;;;;;;15.63;8.40;;;18.80;35.10;;;;;;4950501;28;20845;-75
2022/05/04 08:57:11;;;;;;;10.80;8.23;;;18.50;35.00;;;;;;4950247;29;20440;-75
2022/05/04 08:59:37;;;;;;;11.70;8.70;;;18.90;34.40;;;;;;4952028;28;20441;-74
2022/05/04 09:02:03;;;;;;;12.70;8.30;;;18.90;33.50;;;;;;4950471;28;20187;-74
2022/05/04 09:04:31;;;;;;;12.43;7.97;;;19.90;34.30;;;;;;4950099;28;20672;-73
2022/05/04 09:07:00;;;;;;;18.13;8.20;;;19.80;32.80;;;;;;4952080;28;20438;-71
2022/05/04 09:09:26;;;;;;;10.73;7.60;;;19.10;34.00;;;;;;4950353;29;20444;-75
2022/05/04 09:11:51;;;;;;;14.43;7.23;;;19.20;33.10;;;;;;4950263;28;20439;-75
2022/05/04 09:14:20;;;;;;;14.90;7.90;;;19.30;32.60;;;;;;4950704;28;20652;-73
2022/05/04 09:16:47;;;;;;;10.67;7.20;;;19.90;30.10;;;;;;4955614;28;20211;-77
2022/05/04 09:19:17;;;;;;;8.80;7.20;;;20.00;30.60;;;;;;4955012;28;20534;-74
2022/05/04 09:21:47;;;;;;;10.13;7.17;;;20.00;30.30;;;;;;4950481;28;20532;-75
2022/05/04 09:24:29;;;;;;;8.53;6.70;;;20.00;29.10;;;;;;4954202;28;20479;-76
2022/05/04 09:26:57;;;;;;;8.77;6.60;;;20.20;28.70;;;;;;4951308;28;20911;-75
2022/05/04 09:29:33;;;;;;;10.47;6.20;;;19.40;28.50;;;;;;4952610;28;20442;-75
2022/05/04 09:31:59;;;;;;;7.40;5.70;;;19.30;29.80;;;;;;4947979;28;20431;-71
2022/05/04 09:34:34;;;;;;;12.10;7.13;;;20.20;30.00;;;;;;4951128;28;21039;-72
2022/05/04 09:45:37;;;;;;;12.70;6.90;;;21.20;27.50;;;;;;4955170;29;20439;-73
2022/05/04 09:48:03;;;;;;;12.17;5.93;;;21.30;27.20;;;;;;4954453;28;20484;-73
2022/05/04 09:50:37;;;;;;;7.63;6.00;;;21.90;28.10;;;;;;4954781;28;20467;-73
2022/05/04 09:53:02;;;;;;;10.57;5.60;;;21.90;26.30;;;;;;4952252;28;20453;-73
2022/05/04 09:55:29;;;;;;;8.67;5.27;;;21.70;26.80;;;;;;4953593;29;20458;-72
2022/05/04 09:57:56;;;;;;;10.93;5.17;;;21.30;26.00;;;;;;4952474;28;20182;-73
2022/05/04 10:00:24;;;;;;;8.40;5.40;;;21.60;26.20;;;;;;4951696;29;20453;-74
2022/05/04 10:02:52;;;;;;;9.27;5.30;;;21.80;25.50;;;;;;4953317;28;20440;-74
2022/05/04 10:05:22;;;;;;;6.67;4.90;;;22.00;25.40;;;;;;4954228;28;20438;-74
2022/05/04 10:07:49;;;;;;;6.50;4.53;;;21.20;24.60;;;;;;4954716;28;20410;-74
2022/05/04 10:10:17;;;;;;;8.60;5.40;;;21.30;25.20;;;;;;4952396;28;20436;-73
2022/05/04 10:12:44;;;;;;;7.27;5.47;;;21.60;26.30;;;;;;4951492;28;20489;-73
2022/05/04 10:15:13;;;;;;;6.70;5.20;;;22.00;25.90;;;;;;4951777;28;20466;-74
2022/05/04 10:18:01;;;;;;;17.60;5.20;;;22.20;25.30;;;;;;4951175;28;20427;-74
2022/05/04 10:20:35;;;;;;;5.77;4.90;;;22.10;26.40;;;;;;4941029;29;20922;-73
2022/05/04 10:23:21;;;;;;;5.90;4.53;;;22.40;24.00;;;;;;4949927;28;20446;-73
2022/05/04 10:25:48;;;;;;;7.93;4.77;;;22.40;25.80;;;;;;4950377;28;20440;-73
2022/05/04 10:28:15;;;;;;;6.17;5.20;;;22.70;26.30;;;;;;4956015;28;20435;-74
2022/05/04 10:30:59;;;;;;;7.87;5.20;;;22.90;25.10;;;;;;4954177;28;20418;-74
2022/05/04 10:33:30;;;;;;;7.60;5.10;;;22.80;26.40;;;;;;4954103;28;20555;-74
2022/05/04 10:35:56;;;;;;;9.00;5.53;;;22.70;25.20;;;;;;4948644;28;20473;-74
2022/05/04 10:38:33;;;;;;;9.03;4.17;;;22.80;24.90;;;;;;4951106;29;20441;-75
2022/05/04 10:41:06;;;;;;;8.47;4.87;;;22.90;24.20;;;;;;4951983;28;20951;-75
2022/05/04 10:43:37;;;;;;;7.77;5.23;;;23.00;23.70;;;;;;4952867;28;20466;-73
2022/05/04 10:46:09;;;;;;;11.13;5.90;;;23.20;25.20;;;;;;4950180;28;20466;-75
2022/05/04 10:48:35;;;;;;;6.20;4.80;;;23.30;23.80;;;;;;4951377;28;20460;-74
2022/05/04 10:51:03;;;;;;;6.57;5.10;;;23.30;23.30;;;;;;4951865;28;20470;-74
2022/05/04 10:53:29;;;;;;;6.83;4.70;;;23.10;23.70;;;;;;4953400;28;21038;-75
2022/05/04 10:56:03;;;;;;;9.77;4.47;;;23.20;23.80;;;;;;4953292;29;20574;-74
2022/05/04 10:58:50;;;;;;;9.03;4.83;;;22.80;24.40;;;;;;4953450;28;20546;-74
2022/05/04 11:01:26;;;;;;;5.63;4.37;;;22.80;23.90;;;;;;4952079;29;20516;-74
2022/05/04 11:03:54;;;;;;;9.53;4.50;;;22.80;25.40;;;;;;4953178;28;20435;-74
2022/05/04 11:06:38;;;;;;;7.43;4.73;;;22.40;23.20;;;;;;4953128;29;20789;-73
2022/05/04 11:09:15;;;;;;;8.63;4.50;;;22.00;25.20;;;;;;4953319;28;20425;-74
2022/05/04 11:11:48;;;;;;;17.73;4.67;;;21.80;25.50;;;;;;4953182;28;20487;-74
2022/05/04 11:14:16;;;;;;;9.07;4.33;;;19.20;22.10;;;;;;4953072;28;20439;-73
2022/05/04 11:16:43;;;;;;;13.50;4.50;;;22.40;24.80;;;;;;4953088;28;20516;-74
2022/05/04 11:19:11;;;;;;;14.37;4.80;;;22.60;25.90;;;;;;4953344;28;20408;-74
2022/05/04 11:21:37;;;;;;;6.00;5.17;;;22.90;24.90;;;;;;4953017;28;20410;-74
2022/05/04 11:24:06;;;;;;;10.93;5.10;;;22.90;24.60;;;;;;4953240;28;20429;-74
2022/05/04 11:26:58;;;;;;;8.83;4.47;;;22.80;23.10;;;;;;4952561;28;20813;-74
2022/05/04 11:29:28;;;;;;;15.13;5.07;;;22.70;23.40;;;;;;4951166;28;20456;-74
2022/05/04 11:31:59;;;;;;;8.30;4.70;;;22.70;23.60;;;;;;4952946;28;20495;-74
2022/05/04 11:34:35;;;;;;;10.87;4.77;;;22.90;23.50;;;;;;4951979;28;20916;-73
2022/05/04 11:37:07;;;;;;;7.37;4.23;;;23.80;25.00;;;;;;4954173;28;20429;-74
2022/05/04 11:39:33;;;;;;;6.23;4.37;;;24.30;22.90;;;;;;4957191;28;20406;-75
2022/05/04 11:42:00;;;;;;;8.00;4.10;;;25.30;21.50;;;;;;4956046;28;20438;-74
2022/05/04 11:44:28;;;;;;;7.73;4.10;;;26.20;20.80;;;;;;4956894;29;20431;-74
2022/05/04 11:46:55;;;;;;;7.93;4.93;;;27.10;19.40;;;;;;4954291;28;20886;-75
2022/05/04 11:49:23;;;;;;;6.90;4.57;;;27.10;19.40;;;;;;4953048;28;20438;-74
2022/05/04 11:51:50;;;;;;;13.63;6.13;;;26.50;20.50;;;;;;4950054;28;20438;-75
2022/05/04 11:54:16;;;;;;;11.70;5.80;;;25.70;21.40;;;;;;4952709;28;20477;-73
2022/05/04 11:56:41;;;;;;;10.57;5.50;;;24.10;22.70;;;;;;4955747;28;20462;-73
2022/05/04 11:59:07;;;;;;;10.87;5.77;;;22.00;25.30;;;;;;4954933;28;20430;-74
2022/05/04 12:01:33;;;;;;;12.90;6.30;;;21.40;26.40;;;;;;4955246;29;20262;-73
2022/05/04 12:04:01;;;;;;;11.77;6.73;;;21.00;27.20;;;;;;4953749;28;20203;-74
2022/05/04 12:06:27;;;;;;;11.30;6.67;;;20.60;28.10;;;;;;4954735;29;20492;-74
2022/05/04 12:08:54;;;;;;;11.17;7.20;;;20.20;29.50;;;;;;4952811;28;20511;-74
2022/05/04 12:11:22;;;;;;;11.77;7.63;;;19.70;30.60;;;;;;4954553;28;20411;-74
2022/05/04 12:13:47;;;;;;;8.00;5.37;;;19.50;32.00;;;;;;4948825;28;20517;-75
2022/05/04 12:16:14;;;;;;;12.90;6.07;;;18.70;32.00;;;;;;4954287;29;20570;-73
2022/05/04 12:18:40;;;;;;;8.03;5.50;;;17.80;34.80;;;;;;4953289;29;20651;-74
2022/05/04 12:21:08;;;;;;;9.40;4.97;;;17.70;33.20;;;;;;4952499;28;20443;-72
2022/05/04 12:23:42;;;;;;;13.73;5.80;;;18.20;31.90;;;;;;4951690;28;20495;-74
2022/05/04 12:26:12;;;;;;;15.40;6.93;;;18.30;33.50;;;;;;4955956;28;20434;-73
2022/05/04 12:28:40;;;;;;;9.63;5.97;;;17.60;37.30;;;;;;4956416;28;21018;-74
2022/05/04 12:33:51;;;;;;;22.60;7.13;;;17.70;40.90;;;;;;4955918;28;20432;-73
2022/05/04 12:36:18;;;;;;;11.07;7.00;;;17.60;47.10;;;;;;4955775;28;20639;-74
2022/05/04 12:38:47;;;;;;;20.30;8.87;;;17.90;40.60;;;;;;4956407;28;20185;-76
2022/05/04 12:41:16;;;;;;;27.13;9.03;;;18.20;46.20;;;;;;4957797;28;20424;-76
2022/05/04 12:43:42;;;;;;;22.33;8.90;;;18.30;47.80;;;;;;4961836;28;20459;-75
2022/05/04 12:46:10;;;;;;;23.37;9.27;;;18.30;49.00;;;;;;4956133;28;20905;-76
2022/05/04 12:48:38;;;;;;;30.00;9.20;;;18.00;52.00;;;;;;4955764;28;20902;-75
2022/05/04 12:51:04;;;;;;;16.90;8.40;;;18.00;52.70;;;;;;4954794;28;20435;-75
2022/05/04 12:53:30;;;;;;;20.67;7.90;;;18.10;53.10;;;;;;4954364;28;20542;-74
2022/05/04 12:58:40;;;;;;;11.30;7.23;;;17.90;52.80;;;;;;4952959;29;20222;-73
2022/05/04 13:01:07;;;;;;;12.00;7.27;;;18.00;50.40;;;;;;4954194;29;20598;-73
2022/05/04 13:03:33;;;;;;;10.63;7.00;;;18.10;49.00;;;;;;4954971;28;20451;-74
2022/05/04 13:05:59;;;;;;;10.83;7.20;;;18.30;49.20;;;;;;4954988;28;20818;-76
2022/05/04 13:08:25;;;;;;;11.73;8.00;;;18.20;46.70;;;;;;4954720;28;20431;-74
2022/05/04 13:10:52;;;;;;;16.73;8.27;;;18.20;49.00;;;;;;4954623;28;21070;-74
2022/05/04 13:13:18;;;;;;;12.77;7.90;;;18.10;49.70;;;;;;4954462;28;20511;-74